Mr Lloyd — WDB9843 — position and weather

sailwx.info

Track history (hours):
 
Tides and Currents Weather Stations Pressure Air Temp Water Temp Dewpoint Dewpoint Depression Visibility Wind Speed Wind Dir Waves Ship Positions

Mr Lloyd

Owner: D P CREWBOATS LLC, LOCKPORT, LA. More information available from US FCC via Universal Licensing System and Coast Guard Vessel Documentation Center.

Last reported at 2016-May-27 01:33 UTC. Time now 2016-May-27 12:21 UTC.
Position N 29°42' W 093°19'.

Length 48 m; draft 2.5 m.

Type: Passenger vessel. MMSI: 366983730.

Date/timePositionNaut miles runAvg speedWind from/ knotsBaromVisibWave heightAir tempDewpointWater temp
2016-May-27 01:33N 29°42' W 093°19'5 4.5
2016-May-27 00:33N 29°47' W 093°20'0 0.0
2016-May-26 22:13N 29°47' W 093°20'0 0.3
2016-May-26 21:33N 29°47' W 093°20'16 1.1
2016-May-26 07:04N 29°36' W 093°07'1016.4
2016-May-26 06:28N 29°41' W 093°16'6 7.0
2016-May-26 05:33N 29°47' W 093°20'0 0.0
2016-May-26 04:31N 29°47' W 093°20'0 0.0
2016-May-26 03:30N 29°47' W 093°20'0 0.0
2016-May-26 02:33N 29°47' W 093°20'0 0.0
2016-May-26 01:33N 29°47' W 093°20'0 0.0
2016-May-26 00:33N 29°47' W 093°20'0 0.0
2016-May-25 23:34N 29°47' W 093°20'0 0.0
2016-May-25 22:30N 29°47' W 093°20'0 0.0
2016-May-25 21:32N 29°47' W 093°20'0 0.0
2016-May-25 20:29N 29°47' W 093°20'0 0.0
2016-May-25 19:33N 29°47' W 093°20'0 0.0
2016-May-25 18:30N 29°47' W 093°20'0 0.0
2016-May-25 17:30N 29°47' W 093°20'0 0.0
2016-May-25 16:31N 29°47' W 093°20'0 0.0
2016-May-25 15:31N 29°47' W 093°20'0 0.0
2016-May-25 14:33N 29°47' W 093°20'0 0.0
2016-May-25 13:33N 29°47' W 093°20'0 0.0
2016-May-25 12:33N 29°47' W 093°20'0 0.0
2016-May-25 11:33N 29°47' W 093°20'0 0.0
2016-May-25 10:04N 29°47' W 093°20'0 0.0
2016-May-25 09:33N 29°47' W 093°20'0 0.0
2016-May-25 08:32N 29°47' W 093°20'0 0.0
2016-May-25 07:33N 29°47' W 093°20'0 0.0
2016-May-25 06:34N 29°47' W 093°20'0 0.0
2016-May-25 05:34N 29°47' W 093°20'0 0.0
2016-May-25 04:34N 29°47' W 093°20'0 0.0
2016-May-25 03:22N 29°47' W 093°20'0 0.0
2016-May-25 02:33N 29°47' W 093°20'0 0.0
2016-May-25 01:33N 29°47' W 093°20'0 0.0
2016-May-25 00:34N 29°47' W 093°20'0 0.0
2016-May-24 23:33N 29°47' W 093°20'1 1.4
2016-May-24 22:34N 29°45' W 093°21'6 0.5
2016-May-24 11:30N 29°41' W 093°17'7 6.7
2016-May-24 10:32N 29°47' W 093°20'0 0.0
2016-May-24 08:26N 29°47' W 093°20'0 0.0
2016-May-24 07:30N 29°47' W 093°20'0 0.0
2016-May-24 06:33N 29°47' W 093°20'0 0.0
2016-May-24 05:33N 29°47' W 093°20'0 0.0
2016-May-24 04:25N 29°47' W 093°20'7 0.6
2016-May-23 17:32N 29°41' W 093°16'7 6.9
2016-May-23 16:32N 29°47' W 093°20'0 0.0
2016-May-23 15:34N 29°47' W 093°20'0 0.0
2016-May-23 14:34N 29°47' W 093°20'0 0.0
2016-May-23 13:33N 29°47' W 093°20'17 1.5
2016-May-23 02:21N 29°35' W 093°07'1317.1
2016-May-23 01:33N 29°43' W 093°19'4 4.2
2016-May-23 00:34N 29°47' W 093°20'0 0.0
2016-May-22 23:33N 29°47' W 093°20'0 0.0
2016-May-22 22:33N 29°47' W 093°20'0 0.0
2016-May-22 21:33N 29°47' W 093°20'0 0.0
2016-May-22 20:33N 29°47' W 093°20'0 0.0
2016-May-22 19:34N 29°47' W 093°20'0 0.0
2016-May-22 18:34N 29°47' W 093°20'0 0.0
2016-May-22 17:26N 29°47' W 093°20'0 0.0
2016-May-22 16:29N 29°47' W 093°20'0 0.0
2016-May-22 15:32N 29°47' W 093°20'0 0.0
2016-May-22 14:33N 29°47' W 093°20'1 0.7
2016-May-22 13:33N 29°46' W 093°21'16 1.2
2016-May-21 23:27N 29°35' W 093°07'1415.8
2016-May-21 22:33N 29°44' W 093°20'3 3.3
2016-May-21 21:33N 29°47' W 093°20'0 0.0
2016-May-21 20:05N 29°47' W 093°20'0 0.0
2016-May-21 19:32N 29°47' W 093°20'0 0.1
2016-May-21 18:34N 29°47' W 093°20'0 0.0
2016-May-21 17:33N 29°47' W 093°20'0 0.0
2016-May-21 16:33N 29°47' W 093°20'0 0.0
2016-May-21 15:33N 29°47' W 093°20'0 0.0
2016-May-21 14:33N 29°47' W 093°20'0 0.0
2016-May-21 13:33N 29°47' W 093°20'0 0.0
2016-May-21 12:33N 29°47' W 093°20'0 0.0
2016-May-21 11:33N 29°47' W 093°20'0 0.0
2016-May-21 10:33N 29°47' W 093°20'0 0.0
2016-May-21 09:34N 29°47' W 093°20'0 0.0
2016-May-21 08:33N 29°47' W 093°20'0 0.0
2016-May-21 07:33N 29°47' W 093°20'0 0.0
2016-May-21 06:33N 29°47' W 093°20'0 0.1
2016-May-21 05:33N 29°47' W 093°20'0 0.0
2016-May-21 04:33N 29°47' W 093°20'0 0.0
2016-May-21 03:33N 29°47' W 093°20'0 0.0
2016-May-21 02:33N 29°47' W 093°20'0 0.0
2016-May-21 01:33N 29°47' W 093°20'0 0.0
2016-May-21 00:33N 29°47' W 093°20'0 0.0
2016-May-20 23:34N 29°47' W 093°20'0 0.0
2016-May-20 22:33N 29°47' W 093°20'0 0.0
2016-May-20 21:33N 29°47' W 093°20'0 0.0
2016-May-20 20:33N 29°47' W 093°20'0 0.0
2016-May-20 19:33N 29°47' W 093°20'0 0.0
2016-May-20 18:33N 29°47' W 093°20'0 0.0
2016-May-20 17:33N 29°47' W 093°20'0 0.0
2016-May-20 16:33N 29°47' W 093°20'0 0.0
2016-May-20 15:33N 29°47' W 093°20'0 0.0
2016-May-20 14:32N 29°47' W 093°20'0 0.0
2016-May-20 13:33N 29°47' W 093°20'0 0.0
2016-May-20 12:33N 29°47' W 093°20'0 0.0
2016-May-20 11:33N 29°47' W 093°20'0 0.0
2016-May-20 10:22N 29°47' W 093°20'0 0.0
2016-May-20 09:33N 29°47' W 093°20'0 0.0
2016-May-20 08:33N 29°47' W 093°20'0 0.0
2016-May-20 07:33N 29°47' W 093°20'0 0.0
2016-May-20 06:33N 29°47' W 093°20'0 0.0
2016-May-20 05:33N 29°47' W 093°20'0 0.0
2016-May-20 04:33N 29°47' W 093°20'0 0.0
2016-May-20 03:33N 29°47' W 093°20'0 0.0
2016-May-20 02:33N 29°47' W 093°20'0 0.0
2016-May-20 01:33N 29°47' W 093°20'0 0.0
2016-May-20 00:33N 29°47' W 093°20'0 0.0
2016-May-19 23:31N 29°47' W 093°20'0 0.0
2016-May-19 22:33N 29°47' W 093°20'0 0.0
2016-May-19 21:19N 29°47' W 093°20'0 0.0
2016-May-19 20:33N 29°47' W 093°20'0 0.0
2016-May-19 19:33N 29°47' W 093°20'0 0.0
2016-May-19 18:33N 29°47' W 093°20'0 0.0
2016-May-19 17:33N 29°47' W 093°20'0 0.0
2016-May-19 16:33N 29°47' W 093°20'0 0.0
2016-May-19 15:33N 29°47' W 093°20'0 0.0
2016-May-19 14:33N 29°47' W 093°20'0 0.0
2016-May-19 13:33N 29°47' W 093°20'0 0.0
2016-May-19 12:33N 29°47' W 093°20'0 0.0
2016-May-19 11:31N 29°47' W 093°20'0 0.0
2016-May-19 10:32N 29°47' W 093°20'0 0.0
2016-May-19 09:33N 29°47' W 093°20'0 0.0
2016-May-19 08:33N 29°47' W 093°20'0 0.0
2016-May-19 07:33N 29°47' W 093°20'0 0.0
2016-May-19 06:33N 29°47' W 093°20'0 0.0
2016-May-19 05:33N 29°47' W 093°20'0 0.0
2016-May-19 04:33N 29°47' W 093°20'0 0.0
2016-May-19 03:33N 29°47' W 093°20'0 0.0
2016-May-19 02:33N 29°47' W 093°20'0 0.0
2016-May-19 01:33N 29°47' W 093°20'0 0.0
2016-May-19 00:33N 29°47' W 093°20'0 0.0
2016-May-18 23:33N 29°47' W 093°20'0 0.0
2016-May-18 22:33N 29°47' W 093°20'0 0.0
2016-May-18 21:33N 29°47' W 093°20'0 0.0
2016-May-18 20:33N 29°47' W 093°20'0 0.0
2016-May-18 19:31N 29°47' W 093°20'0 0.0
2016-May-18 18:33N 29°47' W 093°20'0 0.0
2016-May-18 17:33N 29°47' W 093°20'0 0.0
2016-May-18 16:33N 29°47' W 093°20'0 0.0
2016-May-18 15:30N 29°47' W 093°20'0 0.0
2016-May-18 14:22N 29°47' W 093°20'0 0.0
2016-May-18 13:33N 29°47' W 093°20'0 0.0
2016-May-18 12:33N 29°47' W 093°20'0 0.0
2016-May-18 11:33N 29°47' W 093°20'0 0.0
2016-May-18 10:33N 29°47' W 093°20'1 1.4
2016-May-18 09:33N 29°46' W 093°21'1 1.4
2016-May-18 08:33N 29°47' W 093°20'0 0.0
2016-May-18 07:34N 29°47' W 093°20'0 0.0
2016-May-18 06:34N 29°47' W 093°20'0 0.0
2016-May-18 05:34N 29°47' W 093°20'0 0.0
2016-May-18 04:34N 29°47' W 093°20'0 0.0
2016-May-18 03:33N 29°47' W 093°20'0 0.0
2016-May-18 02:34N 29°47' W 093°20'0 0.0
2016-May-18 01:34N 29°47' W 093°20'0 0.0
2016-May-18 00:33N 29°47' W 093°20'0 0.0
2016-May-17 23:34N 29°47' W 093°20'0 0.0
2016-May-17 22:34N 29°47' W 093°20'2 1.7
2016-May-17 21:33N 29°45' W 093°21'6 0.4
2016-May-17 06:08N 29°41' W 093°16'711.5
2016-May-17 05:33N 29°46' W 093°21'1 0.8
2016-May-17 04:33N 29°47' W 093°20'0 0.0
2016-May-17 03:33N 29°47' W 093°20'0 0.0
2016-May-17 02:33N 29°47' W 093°20'  
Track history (hours):
 
Tides and Currents Weather Stations Pressure Air Temp Water Temp Dewpoint Dewpoint Depression Visibility Wind Speed Wind Dir Waves Ship Positions

Mr Lloyd

Owner: D P CREWBOATS LLC, LOCKPORT, LA. More information available from US FCC via Universal Licensing System and Coast Guard Vessel Documentation Center.

Last reported at 2016-May-27 01:33 UTC. Time now 2016-May-27 12:21 UTC.
Position N 29°42' W 093°19'.

Length 48 m; draft 2.5 m.

Type: Passenger vessel. MMSI: 366983730.

Date/timePositionNaut miles runAvg speedWind from/ knotsBaromVisibWave heightAir tempDewpointWater temp
2016-May-27 01:33N 29°42' W 093°19'5 4.5
2016-May-27 00:33N 29°47' W 093°20'0 0.0
2016-May-26 22:13N 29°47' W 093°20'0 0.3
2016-May-26 21:33N 29°47' W 093°20'16 1.1
2016-May-26 07:04N 29°36' W 093°07'1016.4
2016-May-26 06:28N 29°41' W 093°16'6 7.0
2016-May-26 05:33N 29°47' W 093°20'0 0.0
2016-May-26 04:31N 29°47' W 093°20'0 0.0
2016-May-26 03:30N 29°47' W 093°20'0 0.0
2016-May-26 02:33N 29°47' W 093°20'0 0.0
2016-May-26 01:33N 29°47' W 093°20'0 0.0
2016-May-26 00:33N 29°47' W 093°20'0 0.0
2016-May-25 23:34N 29°47' W 093°20'0 0.0
2016-May-25 22:30N 29°47' W 093°20'0 0.0
2016-May-25 21:32N 29°47' W 093°20'0 0.0
2016-May-25 20:29N 29°47' W 093°20'0 0.0
2016-May-25 19:33N 29°47' W 093°20'0 0.0
2016-May-25 18:30N 29°47' W 093°20'0 0.0
2016-May-25 17:30N 29°47' W 093°20'0 0.0
2016-May-25 16:31N 29°47' W 093°20'0 0.0
2016-May-25 15:31N 29°47' W 093°20'0 0.0
2016-May-25 14:33N 29°47' W 093°20'0 0.0
2016-May-25 13:33N 29°47' W 093°20'0 0.0
2016-May-25 12:33N 29°47' W 093°20'0 0.0
2016-May-25 11:33N 29°47' W 093°20'0 0.0
2016-May-25 10:04N 29°47' W 093°20'0 0.0
2016-May-25 09:33N 29°47' W 093°20'0 0.0
2016-May-25 08:32N 29°47' W 093°20'0 0.0
2016-May-25 07:33N 29°47' W 093°20'0 0.0
2016-May-25 06:34N 29°47' W 093°20'0 0.0
2016-May-25 05:34N 29°47' W 093°20'0 0.0
2016-May-25 04:34N 29°47' W 093°20'0 0.0
2016-May-25 03:22N 29°47' W 093°20'0 0.0
2016-May-25 02:33N 29°47' W 093°20'0 0.0
2016-May-25 01:33N 29°47' W 093°20'0 0.0
2016-May-25 00:34N 29°47' W 093°20'0 0.0
2016-May-24 23:33N 29°47' W 093°20'1 1.4
2016-May-24 22:34N 29°45' W 093°21'6 0.5
2016-May-24 11:30N 29°41' W 093°17'7 6.7
2016-May-24 10:32N 29°47' W 093°20'0 0.0
2016-May-24 08:26N 29°47' W 093°20'0 0.0
2016-May-24 07:30N 29°47' W 093°20'0 0.0
2016-May-24 06:33N 29°47' W 093°20'0 0.0
2016-May-24 05:33N 29°47' W 093°20'0 0.0
2016-May-24 04:25N 29°47' W 093°20'7 0.6
2016-May-23 17:32N 29°41' W 093°16'7 6.9
2016-May-23 16:32N 29°47' W 093°20'0 0.0
2016-May-23 15:34N 29°47' W 093°20'0 0.0
2016-May-23 14:34N 29°47' W 093°20'0 0.0
2016-May-23 13:33N 29°47' W 093°20'17 1.5
2016-May-23 02:21N 29°35' W 093°07'1317.1
2016-May-23 01:33N 29°43' W 093°19'4 4.2
2016-May-23 00:34N 29°47' W 093°20'0 0.0
2016-May-22 23:33N 29°47' W 093°20'0 0.0
2016-May-22 22:33N 29°47' W 093°20'0 0.0
2016-May-22 21:33N 29°47' W 093°20'0 0.0
2016-May-22 20:33N 29°47' W 093°20'0 0.0
2016-May-22 19:34N 29°47' W 093°20'0 0.0
2016-May-22 18:34N 29°47' W 093°20'0 0.0
2016-May-22 17:26N 29°47' W 093°20'0 0.0
2016-May-22 16:29N 29°47' W 093°20'0 0.0
2016-May-22 15:32N 29°47' W 093°20'0 0.0
2016-May-22 14:33N 29°47' W 093°20'1 0.7
2016-May-22 13:33N 29°46' W 093°21'16 1.2
2016-May-21 23:27N 29°35' W 093°07'1415.8
2016-May-21 22:33N 29°44' W 093°20'3 3.3
2016-May-21 21:33N 29°47' W 093°20'0 0.0
2016-May-21 20:05N 29°47' W 093°20'0 0.0
2016-May-21 19:32N 29°47' W 093°20'0 0.1
2016-May-21 18:34N 29°47' W 093°20'0 0.0
2016-May-21 17:33N 29°47' W 093°20'0 0.0
2016-May-21 16:33N 29°47' W 093°20'0 0.0
2016-May-21 15:33N 29°47' W 093°20'0 0.0
2016-May-21 14:33N 29°47' W 093°20'0 0.0
2016-May-21 13:33N 29°47' W 093°20'0 0.0
2016-May-21 12:33N 29°47' W 093°20'0 0.0
2016-May-21 11:33N 29°47' W 093°20'0 0.0
2016-May-21 10:33N 29°47' W 093°20'0 0.0
2016-May-21 09:34N 29°47' W 093°20'0 0.0
2016-May-21 08:33N 29°47' W 093°20'0 0.0
2016-May-21 07:33N 29°47' W 093°20'0 0.0
2016-May-21 06:33N 29°47' W 093°20'0 0.1
2016-May-21 05:33N 29°47' W 093°20'0 0.0
2016-May-21 04:33N 29°47' W 093°20'0 0.0
2016-May-21 03:33N 29°47' W 093°20'0 0.0
2016-May-21 02:33N 29°47' W 093°20'0 0.0
2016-May-21 01:33N 29°47' W 093°20'0 0.0
2016-May-21 00:33N 29°47' W 093°20'0 0.0
2016-May-20 23:34N 29°47' W 093°20'0 0.0
2016-May-20 22:33N 29°47' W 093°20'0 0.0
2016-May-20 21:33N 29°47' W 093°20'0 0.0
2016-May-20 20:33N 29°47' W 093°20'0 0.0
2016-May-20 19:33N 29°47' W 093°20'0 0.0
2016-May-20 18:33N 29°47' W 093°20'0 0.0
2016-May-20 17:33N 29°47' W 093°20'0 0.0
2016-May-20 16:33N 29°47' W 093°20'0 0.0
2016-May-20 15:33N 29°47' W 093°20'0 0.0
2016-May-20 14:32N 29°47' W 093°20'0 0.0
2016-May-20 13:33N 29°47' W 093°20'0 0.0
2016-May-20 12:33N 29°47' W 093°20'0 0.0
2016-May-20 11:33N 29°47' W 093°20'0 0.0
2016-May-20 10:22N 29°47' W 093°20'0 0.0
2016-May-20 09:33N 29°47' W 093°20'0 0.0
2016-May-20 08:33N 29°47' W 093°20'0 0.0
2016-May-20 07:33N 29°47' W 093°20'0 0.0
2016-May-20 06:33N 29°47' W 093°20'0 0.0
2016-May-20 05:33N 29°47' W 093°20'0 0.0
2016-May-20 04:33N 29°47' W 093°20'0 0.0
2016-May-20 03:33N 29°47' W 093°20'0 0.0
2016-May-20 02:33N 29°47' W 093°20'0 0.0
2016-May-20 01:33N 29°47' W 093°20'0 0.0
2016-May-20 00:33N 29°47' W 093°20'0 0.0
2016-May-19 23:31N 29°47' W 093°20'0 0.0
2016-May-19 22:33N 29°47' W 093°20'0 0.0
2016-May-19 21:19N 29°47' W 093°20'0 0.0
2016-May-19 20:33N 29°47' W 093°20'0 0.0
2016-May-19 19:33N 29°47' W 093°20'0 0.0
2016-May-19 18:33N 29°47' W 093°20'0 0.0
2016-May-19 17:33N 29°47' W 093°20'0 0.0
2016-May-19 16:33N 29°47' W 093°20'0 0.0
2016-May-19 15:33N 29°47' W 093°20'0 0.0
2016-May-19 14:33N 29°47' W 093°20'0 0.0
2016-May-19 13:33N 29°47' W 093°20'0 0.0
2016-May-19 12:33N 29°47' W 093°20'0 0.0
2016-May-19 11:31N 29°47' W 093°20'0 0.0
2016-May-19 10:32N 29°47' W 093°20'0 0.0
2016-May-19 09:33N 29°47' W 093°20'0 0.0
2016-May-19 08:33N 29°47' W 093°20'0 0.0
2016-May-19 07:33N 29°47' W 093°20'0 0.0
2016-May-19 06:33N 29°47' W 093°20'0 0.0
2016-May-19 05:33N 29°47' W 093°20'0 0.0
2016-May-19 04:33N 29°47' W 093°20'0 0.0
2016-May-19 03:33N 29°47' W 093°20'0 0.0
2016-May-19 02:33N 29°47' W 093°20'0 0.0
2016-May-19 01:33N 29°47' W 093°20'0 0.0
2016-May-19 00:33N 29°47' W 093°20'0 0.0
2016-May-18 23:33N 29°47' W 093°20'0 0.0
2016-May-18 22:33N 29°47' W 093°20'0 0.0
2016-May-18 21:33N 29°47' W 093°20'0 0.0
2016-May-18 20:33N 29°47' W 093°20'0 0.0
2016-May-18 19:31N 29°47' W 093°20'0 0.0
2016-May-18 18:33N 29°47' W 093°20'0 0.0
2016-May-18 17:33N 29°47' W 093°20'0 0.0
2016-May-18 16:33N 29°47' W 093°20'0 0.0
2016-May-18 15:30N 29°47' W 093°20'0 0.0
2016-May-18 14:22N 29°47' W 093°20'0 0.0
2016-May-18 13:33N 29°47' W 093°20'0 0.0
2016-May-18 12:33N 29°47' W 093°20'0 0.0
2016-May-18 11:33N 29°47' W 093°20'0 0.0
2016-May-18 10:33N 29°47' W 093°20'1 1.4
2016-May-18 09:33N 29°46' W 093°21'1 1.4
2016-May-18 08:33N 29°47' W 093°20'0 0.0
2016-May-18 07:34N 29°47' W 093°20'0 0.0
2016-May-18 06:34N 29°47' W 093°20'0 0.0
2016-May-18 05:34N 29°47' W 093°20'0 0.0
2016-May-18 04:34N 29°47' W 093°20'0 0.0
2016-May-18 03:33N 29°47' W 093°20'0 0.0
2016-May-18 02:34N 29°47' W 093°20'0 0.0
2016-May-18 01:34N 29°47' W 093°20'0 0.0
2016-May-18 00:33N 29°47' W 093°20'0 0.0
2016-May-17 23:34N 29°47' W 093°20'0 0.0
2016-May-17 22:34N 29°47' W 093°20'2 1.7
2016-May-17 21:33N 29°45' W 093°21'6 0.4
2016-May-17 06:08N 29°41' W 093°16'711.5
2016-May-17 05:33N 29°46' W 093°21'1 0.8
2016-May-17 04:33N 29°47' W 093°20'0 0.0
2016-May-17 03:33N 29°47' W 093°20'0 0.0
2016-May-17 02:33N 29°47' W 093°20'  

Dump ship's entire track history